Terminal Aerodrome Forecast
Issued by NWS

Current Version | Previous Version | Text Only | Print | Product List | Glossary Off
Versions: 1 2 3 4 5 6 7 8 9 10 11 12 13 14 15 16 17 18 19 20 21 22 23 24 25

513
FTUS41 KRLX 131120
TAFCKB
TAF
KCKB 131120Z 1312/1412 30013KT 5SM -SHSN BKN025
      TEMPO 1312/1314 2SM -SHSN
     FM131600 29012G22KT P6SM SCT035
     FM132300 29009KT P6SM SCT050=

USA.gov is the U.S. government's official web portal to all federal, state and local government web resources and services.